createdAt,value
2022-09-25T00:01:27.157Z,18.10
2022-09-25T00:03:55.287Z,18.42
2022-09-25T00:06:25.870Z,20.65
2022-09-25T00:08:54.552Z,21.27
2022-09-25T00:11:34.401Z,20.77
2022-09-25T00:14:10.487Z,23.10
2022-09-25T00:16:38.640Z,20.65
2022-09-25T00:19:25.115Z,20.08
2022-09-25T00:21:53.965Z,19.60
2022-09-25T00:24:21.928Z,20.42
2022-09-25T00:26:50.189Z,20.27
2022-09-25T00:29:20.345Z,19.65
2022-09-25T00:31:48.465Z,20.50
2022-09-25T00:34:16.357Z,19.73
2022-09-25T00:36:44.241Z,24.67
2022-09-25T00:39:12.134Z,20.73
2022-09-25T00:41:40.412Z,19.35
2022-09-25T00:44:46.822Z,23.00
2022-09-25T00:47:20.383Z,19.42
2022-09-25T00:49:48.885Z,19.83
2022-09-25T00:52:16.956Z,19.90
2022-09-25T00:54:54.676Z,18.65
2022-09-25T00:57:27.723Z,20.92
2022-09-25T00:59:59.397Z,24.85
2022-09-25T01:02:37.895Z,20.60
2022-09-25T01:05:09.811Z,20.13
2022-09-25T01:07:41.393Z,19.05
2022-09-25T01:12:41.679Z,19.98
2022-09-25T01:15:14.952Z,18.48
2022-09-25T01:17:51.566Z,18.65
2022-09-25T01:20:30.567Z,18.98
2022-09-25T01:23:21.310Z,19.02
2022-09-25T01:26:16.651Z,21.17
2022-09-25T01:28:57.675Z,20.48
2022-09-25T01:31:39.422Z,21.88
2022-09-25T01:34:34.176Z,23.45
2022-09-25T01:37:27.318Z,27.67
2022-09-25T01:40:25.199Z,24.42
2022-09-25T01:42:58.292Z,22.83
2022-09-25T01:45:42.910Z,23.58
2022-09-25T01:48:14.285Z,22.52
2022-09-25T01:51:25.015Z,22.40
2022-09-25T01:53:57.892Z,21.27
2022-09-25T01:56:43.971Z,20.80
2022-09-25T01:59:19.875Z,21.42
2022-09-25T02:01:53.743Z,21.40
2022-09-25T02:04:53.168Z,21.65
2022-09-25T02:07:26.143Z,21.38
2022-09-25T02:09:57.677Z,21.33
2022-09-25T02:12:35.393Z,22.52
2022-09-25T02:15:14.544Z,24.25
2022-09-25T02:18:08.578Z,24.35
2022-09-25T02:20:38.083Z,25.80
2022-09-25T02:23:12.357Z,26.48
2022-09-25T02:26:06.654Z,25.38
2022-09-25T02:28:37.409Z,22.85
2022-09-25T02:31:09.067Z,23.80
2022-09-25T02:33:40.365Z,23.05
2022-09-25T02:36:15.599Z,23.88
2022-09-25T02:38:43.487Z,26.55
2022-09-25T02:41:37.016Z,23.15
2022-09-25T02:44:11.080Z,23.30
2022-09-25T02:47:16.402Z,23.20
2022-09-25T02:49:50.098Z,22.33
2022-09-25T02:52:28.679Z,21.25
2022-09-25T02:55:12.778Z,23.23
2022-09-25T02:57:54.149Z,24.40
2022-09-25T03:00:24.588Z,22.15
2022-09-25T03:03:09.264Z,23.13
2022-09-25T03:05:38.581Z,24.70
2022-09-25T03:08:26.054Z,24.38
2022-09-25T03:10:54.763Z,25.27
2022-09-25T03:13:33.208Z,24.15
2022-09-25T03:16:03.040Z,25.50
2022-09-25T03:18:32.381Z,25.02
2022-09-25T03:21:00.362Z,24.60
2022-09-25T03:23:28.206Z,25.48
2022-09-25T03:25:56.579Z,24.30
2022-09-25T03:28:24.993Z,24.65
2022-09-25T03:30:59.966Z,23.25
2022-09-25T03:33:30.177Z,24.58
2022-09-25T03:36:03.099Z,24.02
2022-09-25T03:38:31.023Z,24.15
2022-09-25T03:40:59.108Z,25.67
2022-09-25T03:43:34.732Z,25.08
2022-09-25T03:46:02.634Z,25.75
2022-09-25T03:48:31.229Z,25.40
2022-09-25T03:50:59.455Z,26.27
2022-09-25T03:53:27.669Z,25.58
2022-09-25T03:55:55.733Z,25.90
2022-09-25T03:58:23.780Z,26.88
2022-09-25T04:00:51.750Z,25.45
2022-09-25T04:03:20.427Z,26.23
2022-09-25T04:05:48.296Z,26.67
2022-09-25T04:08:17.236Z,24.92
2022-09-25T04:10:45.927Z,25.05
2022-09-25T04:13:13.908Z,26.58
2022-09-25T04:15:43.859Z,25.48
2022-09-25T04:18:11.807Z,26.02
2022-09-25T04:20:39.803Z,26.25
2022-09-25T04:23:07.727Z,25.73
2022-09-25T04:25:36.906Z,26.38
2022-09-25T04:28:05.732Z,26.85
2022-09-25T04:30:34.342Z,26.33
2022-09-25T04:33:21.481Z,25.52
2022-09-25T04:35:49.866Z,24.48
2022-09-25T04:38:17.723Z,25.77
2022-09-25T04:40:46.967Z,27.83
2022-09-25T04:43:15.416Z,25.98
2022-09-25T04:45:43.394Z,26.83
2022-09-25T04:48:11.288Z,27.83
2022-09-25T04:50:39.182Z,27.77
2022-09-25T04:53:07.103Z,26.35
2022-09-25T04:55:35.007Z,26.35
2022-09-25T04:58:03.027Z,27.85
2022-09-25T05:00:33.865Z,26.42
2022-09-25T05:03:05.019Z,28.00
2022-09-25T05:05:36.335Z,26.38
2022-09-25T05:08:08.563Z,27.17
2022-09-25T05:10:36.676Z,27.35
2022-09-25T05:13:05.434Z,27.67
2022-09-25T05:15:34.881Z,28.15
2022-09-25T05:18:07.081Z,27.10
2022-09-25T05:20:38.132Z,27.23
2022-09-25T05:23:06.037Z,28.25
2022-09-25T05:25:34.506Z,25.90
2022-09-25T05:28:04.143Z,26.92
2022-09-25T05:30:34.038Z,28.85
2022-09-25T05:33:02.107Z,24.73
2022-09-25T05:35:32.287Z,29.05
2022-09-25T05:38:00.495Z,26.45
2022-09-25T05:40:28.546Z,26.58
2022-09-25T05:42:56.436Z,26.35
2022-09-25T05:45:25.203Z,29.13
2022-09-25T05:48:06.974Z,24.83
2022-09-25T05:50:35.429Z,24.83
2022-09-25T05:53:05.794Z,25.52
2022-09-25T05:55:33.843Z,25.38
2022-09-25T05:58:05.807Z,25.63
2022-09-25T06:00:34.502Z,24.33
2022-09-25T06:03:03.590Z,23.85
2022-09-25T06:05:31.516Z,25.27
2022-09-25T06:07:59.632Z,24.42
2022-09-25T06:10:28.243Z,25.40
2022-09-25T06:13:03.732Z,25.85
2022-09-25T06:15:37.878Z,27.42
2022-09-25T06:18:06.937Z,25.80
2022-09-25T06:20:34.792Z,26.83
2022-09-25T06:23:02.990Z,28.27
2022-09-25T06:25:33.624Z,28.40
2022-09-25T06:28:02.366Z,27.88
2022-09-25T06:30:35.362Z,27.98
2022-09-25T06:33:08.150Z,27.27
2022-09-25T06:35:36.512Z,27.08
2022-09-25T06:38:06.048Z,27.42
2022-09-25T06:40:34.751Z,30.02
2022-09-25T06:43:04.699Z,29.63
2022-09-25T06:45:37.040Z,28.95
2022-09-25T06:48:18.180Z,29.75
2022-09-25T06:50:56.466Z,28.98
2022-09-25T06:53:30.084Z,30.35
2022-09-25T06:56:00.110Z,28.50
2022-09-25T06:58:29.968Z,28.80
2022-09-25T07:00:58.250Z,29.65
2022-09-25T07:03:44.816Z,28.90
2022-09-25T07:06:15.702Z,29.80
2022-09-25T07:08:49.210Z,29.33
2022-09-25T07:11:23.176Z,29.70
2022-09-25T07:13:53.428Z,30.50
2022-09-25T07:16:23.049Z,30.40
2022-09-25T07:18:52.038Z,30.05
2022-09-25T07:21:22.365Z,30.10
2022-09-25T07:23:51.380Z,30.27
2022-09-25T07:26:24.477Z,29.63
2022-09-25T07:28:59.879Z,28.48
2022-09-25T07:31:30.349Z,29.05
2022-09-25T07:34:01.287Z,30.50
2022-09-25T07:36:29.737Z,30.10
2022-09-25T07:38:57.581Z,28.85
2022-09-25T07:41:26.263Z,28.33
2022-09-25T07:44:06.318Z,28.73
2022-09-25T07:46:45.295Z,27.48
2022-09-25T07:49:13.463Z,27.25
2022-09-25T07:51:41.336Z,25.88
2022-09-25T07:54:09.307Z,26.27
2022-09-25T07:56:39.160Z,26.27
2022-09-25T07:59:07.156Z,25.73
2022-09-25T08:01:39.531Z,26.55
2022-09-25T08:04:10.726Z,25.45
2022-09-25T08:06:39.612Z,25.88
2022-09-25T08:09:10.547Z,24.65
2022-09-25T08:11:39.227Z,24.55
2022-09-25T08:14:07.253Z,23.92
2022-09-25T08:16:38.718Z,23.58
2022-09-25T08:21:37.050Z,23.38
2022-09-25T08:24:08.085Z,24.15
2022-09-25T08:26:36.068Z,23.50
2022-09-25T08:29:05.940Z,23.67
2022-09-25T08:31:34.208Z,24.27
2022-09-25T08:34:21.110Z,24.05
2022-09-25T08:36:52.009Z,22.65
2022-09-25T08:39:19.931Z,22.50
2022-09-25T08:41:51.671Z,23.27
2022-09-25T08:44:56.934Z,23.33
2022-09-25T08:47:49.335Z,24.85
2022-09-25T08:50:23.575Z,21.48
2022-09-25T08:53:04.240Z,22.10
2022-09-25T08:55:55.903Z,21.20
2022-09-25T09:01:07.419Z,21.85
2022-09-25T09:04:08.169Z,22.05
2022-09-25T09:06:39.094Z,20.80
2022-09-25T09:09:18.888Z,22.92
2022-09-25T09:11:58.894Z,21.40
2022-09-25T09:14:31.688Z,21.50
2022-09-25T09:17:25.133Z,20.83
2022-09-25T09:19:59.684Z,22.38
2022-09-25T09:22:45.485Z,21.27
2022-09-25T09:25:32.827Z,19.58
2022-09-25T09:28:12.595Z,19.83
2022-09-25T09:30:58.785Z,21.30
2022-09-25T09:33:58.991Z,20.77
2022-09-25T09:36:39.554Z,21.65
2022-09-25T09:39:25.039Z,18.08
2022-09-25T09:42:05.903Z,18.08
2022-09-25T09:44:45.983Z,17.35
2022-09-25T09:47:44.491Z,15.20
2022-09-25T09:50:41.911Z,15.27
2022-09-25T09:53:41.399Z,14.10
2022-09-25T09:56:16.355Z,15.07
2022-09-25T09:58:52.528Z,13.95
2022-09-25T10:06:51.204Z,13.02
2022-09-25T10:09:19.608Z,13.07
2022-09-25T10:11:57.149Z,13.07
2022-09-25T10:14:33.226Z,12.45
2022-09-25T10:17:03.144Z,12.52
2022-09-25T10:19:46.572Z,12.63
2022-09-25T10:22:21.793Z,11.95
2022-09-25T10:24:53.999Z,12.20
2022-09-25T10:27:21.889Z,11.75
2022-09-25T10:30:13.167Z,13.05
2022-09-25T10:32:58.554Z,12.13
2022-09-25T10:35:31.575Z,12.32
2022-09-25T10:38:02.379Z,12.90
2022-09-25T10:40:40.347Z,11.80
2022-09-25T10:43:21.727Z,12.05
2022-09-25T10:45:50.297Z,10.98
2022-09-25T10:48:55.877Z,11.77
2022-09-25T10:51:24.903Z,10.73
2022-09-25T10:54:01.129Z,10.95
2022-09-25T10:56:39.153Z,11.00
2022-09-25T10:59:22.190Z,10.43
2022-09-25T11:01:52.310Z,10.55
2022-09-25T11:04:26.020Z,10.20
2022-09-25T11:07:02.297Z,9.27
2022-09-25T11:09:33.559Z,7.55
2022-09-25T11:14:56.411Z,5.78
2022-09-25T11:17:39.066Z,6.50
2022-09-25T11:20:33.066Z,6.82
2022-09-25T11:23:30.285Z,6.70
2022-09-25T11:26:21.589Z,6.20
2022-09-25T11:29:05.618Z,4.93
2022-09-25T11:31:55.595Z,4.38
2022-09-25T11:34:41.610Z,5.75
2022-09-25T11:37:55.815Z,5.45
2022-09-25T11:41:13.671Z,5.57
2022-09-25T11:44:09.890Z,5.10
2022-09-25T11:46:52.019Z,5.82
2022-09-25T11:49:25.423Z,4.82
2022-09-25T11:52:30.132Z,4.97
2022-09-25T11:55:12.525Z,5.28
2022-09-25T11:58:29.558Z,5.38
2022-09-25T12:01:12.024Z,6.50
2022-09-25T12:04:07.412Z,4.05
2022-09-25T12:07:06.825Z,3.80
2022-09-25T12:10:04.668Z,3.15
2022-09-25T12:13:06.230Z,2.95
2022-09-25T12:15:52.446Z,2.30
2022-09-25T12:18:28.394Z,2.30
2022-09-25T12:21:13.602Z,2.30
2022-09-25T12:24:00.442Z,2.70
2022-09-25T12:26:45.234Z,2.50
2022-09-25T12:29:27.195Z,2.35
2022-09-25T12:32:14.221Z,2.90
2022-09-25T12:35:00.198Z,2.00
2022-09-25T12:37:47.758Z,2.10
2022-09-25T12:40:33.607Z,2.78
2022-09-25T12:43:12.306Z,2.75
2022-09-25T12:45:46.557Z,2.92
2022-09-25T12:48:20.564Z,3.20
2022-09-25T12:51:19.922Z,3.00
2022-09-25T12:53:59.481Z,3.25
2022-09-25T12:56:51.466Z,3.58
2022-09-25T12:59:46.163Z,3.92
2022-09-25T13:02:31.291Z,4.47
2022-09-25T13:05:08.045Z,4.63
2022-09-25T13:07:54.714Z,4.70
2022-09-25T13:10:30.772Z,4.40
2022-09-25T13:13:02.790Z,4.07
2022-09-25T13:15:34.416Z,4.10
2022-09-25T13:18:05.445Z,4.50
2022-09-25T13:20:38.696Z,4.15
2022-09-25T13:23:12.439Z,4.57
2022-09-25T13:25:46.084Z,3.95
2022-09-25T13:28:23.922Z,4.20
2022-09-25T13:31:08.871Z,3.80
2022-09-25T13:34:10.519Z,3.40
2022-09-25T13:36:42.607Z,3.75
2022-09-25T13:39:46.849Z,3.20
2022-09-25T13:42:47.355Z,3.72
2022-09-25T13:45:35.374Z,4.05
2022-09-25T13:48:13.714Z,4.88
2022-09-25T13:50:47.209Z,4.70
2022-09-25T13:53:24.756Z,5.82
2022-09-25T13:56:01.650Z,5.88
2022-09-25T13:58:35.133Z,3.67
2022-09-25T14:01:19.892Z,4.25
2022-09-25T14:03:51.120Z,5.00
2022-09-25T14:06:26.815Z,5.57
2022-09-25T14:08:56.894Z,5.18
2022-09-25T14:11:32.350Z,5.80
2022-09-25T14:14:02.840Z,6.35
2022-09-25T14:16:55.514Z,6.93
2022-09-25T14:19:37.562Z,6.22
2022-09-25T14:22:06.947Z,6.32
2022-09-25T14:24:35.782Z,6.43
2022-09-25T14:27:03.698Z,6.18
2022-09-25T14:29:41.788Z,5.45
2022-09-25T14:32:56.501Z,6.63
2022-09-25T14:35:31.872Z,7.30
2022-09-25T14:38:26.368Z,6.25
2022-09-25T14:41:24.514Z,6.50
2022-09-25T14:44:01.227Z,6.22
2022-09-25T14:46:29.300Z,6.90
2022-09-25T14:49:07.687Z,6.65
2022-09-25T14:51:48.912Z,6.93
2022-09-25T14:54:26.703Z,8.80
2022-09-25T14:57:03.221Z,7.03
2022-09-25T14:59:47.498Z,6.93
2022-09-25T15:06:03.649Z,6.70
2022-09-25T15:08:41.699Z,7.65
2022-09-25T15:11:21.093Z,6.65
2022-09-25T15:13:49.301Z,8.10
2022-09-25T15:17:02.292Z,6.43
2022-09-25T15:19:34.794Z,6.40
2022-09-25T15:22:02.942Z,6.60
2022-09-25T15:24:35.436Z,5.95
2022-09-25T15:27:07.296Z,6.05
2022-09-25T15:29:38.446Z,5.53
2022-09-25T15:32:06.929Z,6.30
2022-09-25T15:34:35.195Z,6.70
2022-09-25T15:37:17.090Z,6.95
2022-09-25T15:39:45.653Z,6.35
2022-09-25T15:42:15.267Z,5.78
2022-09-25T15:44:43.593Z,6.35
2022-09-25T15:47:35.521Z,6.70
2022-09-25T15:50:14.877Z,6.63
2022-09-25T15:52:42.800Z,8.02
2022-09-25T15:55:15.718Z,7.00
2022-09-25T15:57:43.923Z,7.18
2022-09-25T16:00:45.740Z,7.68
2022-09-25T16:03:37.600Z,8.13
2022-09-25T16:06:06.078Z,7.32
2022-09-25T16:08:35.706Z,8.50
2022-09-25T16:11:10.374Z,8.75
2022-09-25T16:13:43.146Z,8.68
2022-09-25T16:16:30.482Z,9.77
2022-09-25T16:19:22.670Z,10.60
2022-09-25T16:21:55.944Z,13.02
2022-09-25T16:24:31.512Z,12.23
2022-09-25T16:27:05.295Z,10.57
2022-09-25T16:29:37.145Z,10.75
2022-09-25T16:32:08.289Z,10.60
2022-09-25T16:34:41.463Z,9.98
2022-09-25T16:37:22.425Z,10.82
2022-09-25T16:40:10.698Z,9.73
2022-09-25T16:42:41.879Z,9.40
2022-09-25T16:45:15.924Z,10.90
2022-09-25T16:47:48.991Z,13.00
2022-09-25T16:50:19.082Z,13.68
2022-09-25T16:52:48.098Z,13.80
2022-09-25T16:55:25.524Z,12.95
2022-09-25T16:57:54.816Z,13.23
2022-09-25T17:00:28.616Z,13.30
2022-09-25T17:02:58.275Z,12.73
2022-09-25T17:05:28.881Z,15.90
2022-09-25T17:08:01.003Z,18.00
2022-09-25T17:10:32.746Z,17.92
2022-09-25T17:13:03.162Z,19.83
2022-09-25T17:15:35.045Z,17.45
2022-09-25T17:18:04.057Z,21.83
2022-09-25T17:20:35.316Z,20.75
2022-09-25T17:23:03.208Z,16.65
2022-09-25T17:25:44.318Z,14.73
2022-09-25T17:28:13.062Z,12.82
2022-09-25T17:30:41.756Z,12.35
2022-09-25T17:33:21.568Z,13.80
2022-09-25T17:35:54.195Z,12.82
2022-09-25T17:38:22.807Z,12.60
2022-09-25T17:40:54.895Z,11.68
2022-09-25T17:43:26.279Z,11.35
2022-09-25T17:48:36.329Z,9.90
2022-09-25T17:51:32.004Z,9.32
2022-09-25T17:54:04.277Z,8.65
2022-09-25T17:56:33.567Z,8.13
2022-09-25T17:59:08.409Z,7.43
2022-09-25T18:01:39.535Z,7.07
2022-09-25T18:06:53.802Z,5.93
2022-09-25T18:09:23.274Z,5.80
2022-09-25T18:14:29.035Z,6.97
2022-09-25T18:16:59.675Z,7.57
2022-09-25T18:19:46.160Z,7.25
2022-09-25T18:22:26.436Z,8.05
2022-09-25T18:24:58.915Z,8.45
2022-09-25T18:27:29.945Z,8.85
2022-09-25T18:29:57.864Z,8.30
2022-09-25T18:32:25.923Z,7.25
2022-09-25T18:34:54.013Z,8.93
2022-09-25T18:37:22.012Z,8.25
2022-09-25T18:39:50.110Z,8.07
2022-09-25T18:42:19.180Z,7.65
2022-09-25T18:44:47.188Z,8.00
2022-09-25T18:47:15.293Z,7.95
2022-09-25T18:49:44.171Z,7.65
2022-09-25T18:52:12.803Z,8.25
2022-09-25T18:54:43.125Z,7.57
2022-09-25T18:57:16.491Z,7.72
2022-09-25T18:59:49.804Z,7.63
2022-09-25T19:02:29.602Z,7.43
2022-09-25T19:04:58.876Z,6.75
2022-09-25T19:07:29.108Z,7.38
2022-09-25T19:09:59.360Z,8.25
2022-09-25T19:12:27.764Z,9.32
2022-09-25T19:14:55.775Z,8.18
2022-09-25T19:17:23.667Z,7.50
2022-09-25T19:19:51.641Z,7.75
2022-09-25T19:22:23.498Z,7.20
2022-09-25T19:24:52.315Z,7.35
2022-09-25T19:27:20.633Z,6.93
2022-09-25T19:29:48.598Z,7.22
2022-09-25T19:32:20.091Z,6.57
2022-09-25T19:37:16.315Z,6.93
2022-09-25T19:40:13.530Z,6.30
2022-09-25T19:42:46.568Z,6.03
2022-09-25T19:45:18.272Z,5.35
2022-09-25T19:47:46.357Z,5.75
2022-09-25T19:50:14.354Z,5.00
2022-09-25T19:52:42.321Z,5.97
2022-09-25T19:55:10.269Z,5.43
2022-09-25T19:57:38.146Z,4.88
2022-09-25T20:00:07.022Z,5.05
2022-09-25T20:02:36.870Z,4.43
2022-09-25T20:05:04.920Z,4.93
2022-09-25T20:07:32.826Z,4.85
2022-09-25T20:10:00.743Z,4.47
2022-09-25T20:12:28.671Z,4.60
2022-09-25T20:14:56.531Z,4.70
2022-09-25T20:17:24.394Z,4.40
2022-09-25T20:19:52.247Z,4.50
2022-09-25T20:22:20.106Z,3.97
2022-09-25T20:24:48.276Z,4.30
2022-09-25T20:27:19.833Z,4.35
2022-09-25T20:29:51.078Z,4.43
2022-09-25T20:32:21.217Z,4.60
2022-09-25T20:34:49.062Z,5.30
2022-09-25T20:37:16.894Z,4.60
2022-09-25T20:39:45.318Z,5.60
2022-09-25T20:42:13.159Z,5.47
2022-09-25T20:44:41.025Z,5.45
2022-09-25T20:47:09.324Z,5.30
2022-09-25T20:49:37.423Z,5.18
2022-09-25T20:52:05.633Z,5.13
2022-09-25T20:54:33.767Z,6.00
2022-09-25T20:57:01.715Z,5.78
2022-09-25T20:59:31.831Z,5.35
2022-09-25T21:01:59.873Z,6.53
2022-09-25T21:04:28.321Z,6.32
2022-09-25T21:06:56.266Z,6.55
2022-09-25T21:09:30.787Z,6.13
2022-09-25T21:11:59.550Z,6.00
2022-09-25T21:14:31.530Z,5.90
2022-09-25T21:17:02.587Z,6.25
2022-09-25T21:19:33.137Z,5.63
2022-09-25T21:22:01.017Z,6.00
2022-09-25T21:24:32.358Z,6.38
2022-09-25T21:27:00.232Z,5.57
2022-09-25T21:29:28.177Z,6.03
2022-09-25T21:31:56.413Z,5.97
2022-09-25T21:34:24.378Z,6.05
2022-09-25T21:36:52.255Z,6.68
2022-09-25T21:39:21.398Z,6.25
2022-09-25T21:41:49.562Z,7.22
2022-09-25T21:44:21.343Z,7.88
2022-09-25T21:46:49.273Z,7.97
2022-09-25T21:49:22.706Z,8.70
2022-09-25T21:51:51.092Z,8.20
2022-09-25T21:54:19.607Z,8.40
2022-09-25T21:56:48.358Z,8.80
2022-09-25T21:59:16.913Z,9.10
2022-09-25T22:01:45.685Z,8.13
2022-09-25T22:04:16.569Z,8.50
2022-09-25T22:06:47.278Z,8.38
2022-09-25T22:09:21.518Z,8.57
2022-09-25T22:11:50.155Z,8.43
2022-09-25T22:14:19.549Z,8.18
2022-09-25T22:16:50.645Z,8.73
2022-09-25T22:19:18.544Z,7.63
2022-09-25T22:21:48.684Z,7.32
2022-09-25T22:24:17.355Z,7.55
2022-09-25T22:26:51.142Z,6.75
2022-09-25T22:29:22.732Z,6.20
2022-09-25T22:31:51.069Z,6.57
2022-09-25T22:34:20.922Z,6.03
2022-09-25T22:36:52.465Z,4.68
2022-09-25T22:39:23.458Z,4.03
2022-09-25T22:41:54.122Z,3.78
2022-09-25T22:44:22.817Z,4.25
2022-09-25T22:46:50.981Z,4.10
2022-09-25T22:49:19.004Z,4.15
2022-09-25T22:51:46.918Z,3.63
2022-09-25T22:54:15.632Z,3.97
2022-09-25T22:56:44.635Z,4.70
2022-09-25T22:59:17.171Z,4.03
2022-09-25T23:01:53.985Z,4.18
2022-09-25T23:04:24.693Z,4.45
2022-09-25T23:06:53.180Z,4.37
2022-09-25T23:09:23.883Z,4.78
2022-09-25T23:11:51.776Z,4.68
2022-09-25T23:14:22.902Z,4.95
2022-09-25T23:16:52.861Z,4.78
2022-09-25T23:19:22.070Z,4.75
2022-09-25T23:21:51.692Z,4.00
2022-09-25T23:24:25.327Z,4.70
2022-09-25T23:26:57.147Z,5.10
2022-09-25T23:29:25.072Z,4.82
2022-09-25T23:31:53.291Z,4.60
2022-09-25T23:34:21.546Z,5.53
2022-09-25T23:36:49.661Z,4.93
2022-09-25T23:39:20.308Z,5.38
2022-09-25T23:41:48.440Z,5.20
2022-09-25T23:44:16.535Z,5.53
2022-09-25T23:46:45.274Z,5.75
2022-09-25T23:49:13.443Z,5.53
2022-09-25T23:51:41.586Z,5.60
2022-09-25T23:54:10.855Z,6.47
2022-09-25T23:56:40.174Z,7.35
2022-09-25T23:59:08.415Z,7.00
